sensor_id;sensor_type;location;lat;lon;timestamp;P1;durP1;ratioP1;P2;durP2;ratioP2
41952;SDS011;47381;28.206;112.926;2022-07-09T00:00:32;8.80;;;7.90;;
41952;SDS011;47381;28.206;112.926;2022-07-09T00:03:02;7.45;;;6.75;;
41952;SDS011;47381;28.206;112.926;2022-07-09T00:08:11;8.38;;;7.00;;
41952;SDS011;47381;28.206;112.926;2022-07-09T00:10:38;8.70;;;6.72;;
41952;SDS011;47381;28.206;112.926;2022-07-09T00:13:26;10.70;;;7.25;;
41952;SDS011;47381;28.206;112.926;2022-07-09T00:16:07;8.18;;;7.30;;
41952;SDS011;47381;28.206;112.926;2022-07-09T00:18:37;8.13;;;6.82;;
41952;SDS011;47381;28.206;112.926;2022-07-09T00:21:04;9.93;;;7.57;;
41952;SDS011;47381;28.206;112.926;2022-07-09T00:23:51;9.45;;;7.38;;
41952;SDS011;47381;28.206;112.926;2022-07-09T00:26:18;9.02;;;7.60;;
41952;SDS011;47381;28.206;112.926;2022-07-09T00:28:46;9.25;;;8.00;;
41952;SDS011;47381;28.206;112.926;2022-07-09T00:31:13;9.10;;;8.13;;
41952;SDS011;47381;28.206;112.926;2022-07-09T00:34:00;8.98;;;8.07;;
41952;SDS011;47381;28.206;112.926;2022-07-09T00:36:27;9.18;;;8.38;;
41952;SDS011;47381;28.206;112.926;2022-07-09T00:38:54;8.63;;;7.32;;
41952;SDS011;47381;28.206;112.926;2022-07-09T00:41:21;10.57;;;8.40;;
41952;SDS011;47381;28.206;112.926;2022-07-09T00:43:49;11.18;;;8.48;;
41952;SDS011;47381;28.206;112.926;2022-07-09T00:46:16;11.68;;;8.80;;
41952;SDS011;47381;28.206;112.926;2022-07-09T00:48:44;9.25;;;8.25;;
41952;SDS011;47381;28.206;112.926;2022-07-09T00:51:12;9.57;;;8.57;;
41952;SDS011;47381;28.206;112.926;2022-07-09T00:54:00;10.90;;;8.93;;
41952;SDS011;47381;28.206;112.926;2022-07-09T00:56:31;10.20;;;9.20;;
41952;SDS011;47381;28.206;112.926;2022-07-09T00:58:59;12.98;;;9.82;;
41952;SDS011;47381;28.206;112.926;2022-07-09T01:01:37;9.85;;;8.85;;
41952;SDS011;47381;28.206;112.926;2022-07-09T01:04:25;9.95;;;8.93;;
41952;SDS011;47381;28.206;112.926;2022-07-09T01:06:52;9.68;;;8.65;;
41952;SDS011;47381;28.206;112.926;2022-07-09T01:09:19;9.48;;;8.63;;
41952;SDS011;47381;28.206;112.926;2022-07-09T01:11:48;10.70;;;9.07;;
41952;SDS011;47381;28.206;112.926;2022-07-09T01:14:18;10.10;;;9.10;;
41952;SDS011;47381;28.206;112.926;2022-07-09T01:16:45;11.27;;;10.13;;
41952;SDS011;47381;28.206;112.926;2022-07-09T01:19:12;11.30;;;9.80;;
41952;SDS011;47381;28.206;112.926;2022-07-09T01:21:39;10.18;;;9.05;;
41952;SDS011;47381;28.206;112.926;2022-07-09T01:24:06;12.57;;;9.48;;
41952;SDS011;47381;28.206;112.926;2022-07-09T01:26:37;10.82;;;9.68;;
41952;SDS011;47381;28.206;112.926;2022-07-09T01:29:04;11.18;;;9.50;;
41952;SDS011;47381;28.206;112.926;2022-07-09T01:31:31;9.55;;;8.70;;
41952;SDS011;47381;28.206;112.926;2022-07-09T01:33:58;12.07;;;9.77;;
41952;SDS011;47381;28.206;112.926;2022-07-09T01:36:28;10.90;;;9.77;;
41952;SDS011;47381;28.206;112.926;2022-07-09T01:38:55;10.23;;;9.32;;
41952;SDS011;47381;28.206;112.926;2022-07-09T01:41:30;11.93;;;9.98;;
41952;SDS011;47381;28.206;112.926;2022-07-09T01:43:58;11.55;;;10.10;;
41952;SDS011;47381;28.206;112.926;2022-07-09T01:46:25;12.73;;;9.25;;
41952;SDS011;47381;28.206;112.926;2022-07-09T01:48:56;11.10;;;10.10;;
41952;SDS011;47381;28.206;112.926;2022-07-09T01:51:23;10.80;;;8.77;;
41952;SDS011;47381;28.206;112.926;2022-07-09T01:53:54;11.68;;;10.43;;
41952;SDS011;47381;28.206;112.926;2022-07-09T01:56:25;11.43;;;9.50;;
41952;SDS011;47381;28.206;112.926;2022-07-09T01:58:53;11.32;;;9.40;;
41952;SDS011;47381;28.206;112.926;2022-07-09T02:01:40;9.77;;;8.80;;
41952;SDS011;47381;28.206;112.926;2022-07-09T02:04:07;10.05;;;9.15;;
41952;SDS011;47381;28.206;112.926;2022-07-09T02:06:37;12.57;;;9.73;;
41952;SDS011;47381;28.206;112.926;2022-07-09T02:09:04;10.57;;;9.50;;
41952;SDS011;47381;28.206;112.926;2022-07-09T02:11:31;10.27;;;9.15;;
41952;SDS011;47381;28.206;112.926;2022-07-09T02:13:58;11.15;;;9.50;;
41952;SDS011;47381;28.206;112.926;2022-07-09T02:16:25;11.70;;;9.65;;
41952;SDS011;47381;28.206;112.926;2022-07-09T02:18:52;9.57;;;8.57;;
41952;SDS011;47381;28.206;112.926;2022-07-09T02:21:22;11.13;;;8.43;;
41952;SDS011;47381;28.206;112.926;2022-07-09T02:23:50;10.10;;;9.15;;
41952;SDS011;47381;28.206;112.926;2022-07-09T02:26:20;12.80;;;9.70;;
41952;SDS011;47381;28.206;112.926;2022-07-09T02:28:47;10.82;;;8.98;;
41952;SDS011;47381;28.206;112.926;2022-07-09T02:31:14;10.30;;;9.18;;
41952;SDS011;47381;28.206;112.926;2022-07-09T02:33:43;10.18;;;9.18;;
41952;SDS011;47381;28.206;112.926;2022-07-09T02:36:10;10.10;;;9.05;;
41952;SDS011;47381;28.206;112.926;2022-07-09T02:38:38;9.88;;;7.90;;
41952;SDS011;47381;28.206;112.926;2022-07-09T02:41:05;9.45;;;7.90;;
41952;SDS011;47381;28.206;112.926;2022-07-09T02:43:32;14.13;;;9.32;;
41952;SDS011;47381;28.206;112.926;2022-07-09T02:45:59;10.68;;;8.80;;
41952;SDS011;47381;28.206;112.926;2022-07-09T02:48:26;11.13;;;8.68;;
41952;SDS011;47381;28.206;112.926;2022-07-09T02:50:53;9.57;;;8.63;;
41952;SDS011;47381;28.206;112.926;2022-07-09T02:53:41;11.73;;;9.38;;
41952;SDS011;47381;28.206;112.926;2022-07-09T02:56:08;10.50;;;8.82;;
41952;SDS011;47381;28.206;112.926;2022-07-09T02:58:35;11.98;;;10.43;;
41952;SDS011;47381;28.206;112.926;2022-07-09T03:01:02;11.10;;;9.30;;
41952;SDS011;47381;28.206;112.926;2022-07-09T03:03:35;10.90;;;8.93;;
41952;SDS011;47381;28.206;112.926;2022-07-09T03:06:19;11.70;;;9.52;;
41952;SDS011;47381;28.206;112.926;2022-07-09T03:08:47;9.70;;;8.60;;
41952;SDS011;47381;28.206;112.926;2022-07-09T03:11:14;10.93;;;8.68;;
41952;SDS011;47381;28.206;112.926;2022-07-09T03:13:41;10.18;;;8.15;;
41952;SDS011;47381;28.206;112.926;2022-07-09T03:16:09;10.35;;;9.32;;
41952;SDS011;47381;28.206;112.926;2022-07-09T03:18:37;11.23;;;8.88;;
41952;SDS011;47381;28.206;112.926;2022-07-09T03:21:10;11.73;;;9.15;;
41952;SDS011;47381;28.206;112.926;2022-07-09T03:23:41;10.60;;;9.45;;
41952;SDS011;47381;28.206;112.926;2022-07-09T03:26:11;11.63;;;8.32;;
41952;SDS011;47381;28.206;112.926;2022-07-09T03:28:44;8.98;;;7.50;;
41952;SDS011;47381;28.206;112.926;2022-07-09T03:31:11;15.05;;;7.78;;
41952;SDS011;47381;28.206;112.926;2022-07-09T03:33:38;8.18;;;7.38;;
41952;SDS011;47381;28.206;112.926;2022-07-09T03:36:05;8.20;;;7.43;;
41952;SDS011;47381;28.206;112.926;2022-07-09T03:38:33;8.18;;;6.97;;
41952;SDS011;47381;28.206;112.926;2022-07-09T03:41:00;11.63;;;7.28;;
41952;SDS011;47381;28.206;112.926;2022-07-09T03:43:29;8.07;;;7.38;;
41952;SDS011;47381;28.206;112.926;2022-07-09T03:45:59;9.45;;;6.95;;
41952;SDS011;47381;28.206;112.926;2022-07-09T03:48:26;8.75;;;7.88;;
41952;SDS011;47381;28.206;112.926;2022-07-09T03:50:54;7.97;;;6.80;;
41952;SDS011;47381;28.206;112.926;2022-07-09T03:53:24;8.55;;;7.65;;
41952;SDS011;47381;28.206;112.926;2022-07-09T03:55:51;9.00;;;7.80;;
41952;SDS011;47381;28.206;112.926;2022-07-09T03:58:18;8.25;;;7.38;;
41952;SDS011;47381;28.206;112.926;2022-07-09T04:00:45;9.43;;;8.15;;
41952;SDS011;47381;28.206;112.926;2022-07-09T04:03:12;11.48;;;9.43;;
41952;SDS011;47381;28.206;112.926;2022-07-09T04:05:40;10.93;;;8.40;;
41952;SDS011;47381;28.206;112.926;2022-07-09T04:08:10;9.18;;;8.25;;
41952;SDS011;47381;28.206;112.926;2022-07-09T04:10:40;9.98;;;7.85;;
41952;SDS011;47381;28.206;112.926;2022-07-09T04:13:07;10.63;;;9.50;;
41952;SDS011;47381;28.206;112.926;2022-07-09T04:15:38;10.30;;;8.45;;
41952;SDS011;47381;28.206;112.926;2022-07-09T04:18:06;12.23;;;8.32;;
41952;SDS011;47381;28.206;112.926;2022-07-09T04:20:33;9.50;;;8.38;;
41952;SDS011;47381;28.206;112.926;2022-07-09T04:23:22;10.10;;;8.68;;
41952;SDS011;47381;28.206;112.926;2022-07-09T04:25:50;8.70;;;7.80;;
41952;SDS011;47381;28.206;112.926;2022-07-09T04:28:17;9.73;;;8.73;;
41952;SDS011;47381;28.206;112.926;2022-07-09T04:30:45;9.80;;;8.88;;
41952;SDS011;47381;28.206;112.926;2022-07-09T04:33:31;9.60;;;8.60;;
41952;SDS011;47381;28.206;112.926;2022-07-09T04:35:59;10.55;;;9.10;;
41952;SDS011;47381;28.206;112.926;2022-07-09T04:38:26;9.65;;;8.15;;
41952;SDS011;47381;28.206;112.926;2022-07-09T04:40:54;10.40;;;9.07;;
41952;SDS011;47381;28.206;112.926;2022-07-09T04:43:21;10.43;;;9.27;;
41952;SDS011;47381;28.206;112.926;2022-07-09T04:45:48;13.25;;;8.75;;
41952;SDS011;47381;28.206;112.926;2022-07-09T04:48:15;11.05;;;9.35;;
41952;SDS011;47381;28.206;112.926;2022-07-09T04:50:43;10.75;;;8.90;;
41952;SDS011;47381;28.206;112.926;2022-07-09T04:53:13;10.60;;;9.30;;
41952;SDS011;47381;28.206;112.926;2022-07-09T04:56:00;10.35;;;9.07;;
41952;SDS011;47381;28.206;112.926;2022-07-09T04:58:28;11.13;;;8.50;;
41952;SDS011;47381;28.206;112.926;2022-07-09T05:00:56;9.60;;;8.48;;
41952;SDS011;47381;28.206;112.926;2022-07-09T05:03:24;9.50;;;7.72;;
41952;SDS011;47381;28.206;112.926;2022-07-09T05:06:15;11.57;;;7.75;;
41952;SDS011;47381;28.206;112.926;2022-07-09T05:08:44;8.70;;;7.20;;
41952;SDS011;47381;28.206;112.926;2022-07-09T05:11:14;10.90;;;7.25;;
41952;SDS011;47381;28.206;112.926;2022-07-09T05:13:41;7.75;;;6.90;;
41952;SDS011;47381;28.206;112.926;2022-07-09T05:16:08;8.90;;;7.07;;
41952;SDS011;47381;28.206;112.926;2022-07-09T05:18:35;8.50;;;6.47;;
41952;SDS011;47381;28.206;112.926;2022-07-09T05:21:05;9.15;;;6.93;;
41952;SDS011;47381;28.206;112.926;2022-07-09T05:23:32;8.93;;;8.13;;
41952;SDS011;47381;28.206;112.926;2022-07-09T05:26:11;7.75;;;6.95;;
41952;SDS011;47381;28.206;112.926;2022-07-09T05:29:20;10.80;;;8.68;;
41952;SDS011;47381;28.206;112.926;2022-07-09T05:31:48;12.30;;;8.48;;
41952;SDS011;47381;28.206;112.926;2022-07-09T05:34:16;9.13;;;8.23;;
41952;SDS011;47381;28.206;112.926;2022-07-09T05:36:52;9.57;;;8.68;;
41952;SDS011;47381;28.206;112.926;2022-07-09T05:39:24;9.35;;;8.45;;
41952;SDS011;47381;28.206;112.926;2022-07-09T05:41:51;10.18;;;8.90;;
41952;SDS011;47381;28.206;112.926;2022-07-09T05:44:22;10.00;;;9.00;;
41952;SDS011;47381;28.206;112.926;2022-07-09T05:46:49;11.40;;;8.88;;
41952;SDS011;47381;28.206;112.926;2022-07-09T05:49:23;10.88;;;8.95;;
41952;SDS011;47381;28.206;112.926;2022-07-09T05:52:16;9.40;;;8.43;;
41952;SDS011;47381;28.206;112.926;2022-07-09T05:54:43;9.05;;;8.13;;
41952;SDS011;47381;28.206;112.926;2022-07-09T05:57:14;10.25;;;8.00;;
41952;SDS011;47381;28.206;112.926;2022-07-09T06:00:01;9.23;;;8.20;;
41952;SDS011;47381;28.206;112.926;2022-07-09T06:02:30;10.07;;;8.13;;
41952;SDS011;47381;28.206;112.926;2022-07-09T06:04:57;9.27;;;8.05;;
41952;SDS011;47381;28.206;112.926;2022-07-09T06:07:25;10.50;;;9.05;;
41952;SDS011;47381;28.206;112.926;2022-07-09T06:09:52;11.18;;;8.48;;
41952;SDS011;47381;28.206;112.926;2022-07-09T06:12:20;9.40;;;7.15;;
41952;SDS011;47381;28.206;112.926;2022-07-09T06:14:51;10.18;;;7.65;;
41952;SDS011;47381;28.206;112.926;2022-07-09T06:17:19;10.82;;;7.60;;
41952;SDS011;47381;28.206;112.926;2022-07-09T06:19:46;8.32;;;7.60;;
41952;SDS011;47381;28.206;112.926;2022-07-09T06:22:13;9.40;;;8.50;;
41952;SDS011;47381;28.206;112.926;2022-07-09T06:25:00;8.43;;;7.53;;
41952;SDS011;47381;28.206;112.926;2022-07-09T06:27:27;10.30;;;8.68;;
41952;SDS011;47381;28.206;112.926;2022-07-09T06:30:01;10.00;;;7.63;;
41952;SDS011;47381;28.206;112.926;2022-07-09T06:32:32;9.00;;;7.30;;
41952;SDS011;47381;28.206;112.926;2022-07-09T06:34:59;7.47;;;6.78;;
41952;SDS011;47381;28.206;112.926;2022-07-09T06:37:26;8.02;;;7.22;;
41952;SDS011;47381;28.206;112.926;2022-07-09T06:39:53;8.52;;;7.72;;
41952;SDS011;47381;28.206;112.926;2022-07-09T06:42:40;7.70;;;7.10;;
41952;SDS011;47381;28.206;112.926;2022-07-09T06:45:08;8.43;;;7.10;;
41952;SDS011;47381;28.206;112.926;2022-07-09T06:47:35;7.13;;;6.45;;
41952;SDS011;47381;28.206;112.926;2022-07-09T06:50:03;7.32;;;6.68;;
41952;SDS011;47381;28.206;112.926;2022-07-09T06:52:51;7.15;;;6.45;;
41952;SDS011;47381;28.206;112.926;2022-07-09T06:55:18;8.50;;;6.90;;
41952;SDS011;47381;28.206;112.926;2022-07-09T06:57:45;6.97;;;6.13;;
41952;SDS011;47381;28.206;112.926;2022-07-09T07:00:13;6.97;;;6.38;;
41952;SDS011;47381;28.206;112.926;2022-07-09T07:03:00;7.22;;;6.53;;
41952;SDS011;47381;28.206;112.926;2022-07-09T07:05:31;10.30;;;6.70;;
41952;SDS011;47381;28.206;112.926;2022-07-09T07:08:12;10.35;;;6.43;;
41952;SDS011;47381;28.206;112.926;2022-07-09T07:10:46;8.45;;;6.55;;
41952;SDS011;47381;28.206;112.926;2022-07-09T07:13:14;9.48;;;6.40;;
41952;SDS011;47381;28.206;112.926;2022-07-09T07:15:41;7.93;;;6.95;;
41952;SDS011;47381;28.206;112.926;2022-07-09T07:18:10;6.55;;;5.95;;
41952;SDS011;47381;28.206;112.926;2022-07-09T07:20:37;7.22;;;6.50;;
41952;SDS011;47381;28.206;112.926;2022-07-09T07:23:04;6.30;;;5.68;;
41952;SDS011;47381;28.206;112.926;2022-07-09T07:25:31;7.43;;;6.38;;
41952;SDS011;47381;28.206;112.926;2022-07-09T07:28:00;6.60;;;6.00;;
41952;SDS011;47381;28.206;112.926;2022-07-09T07:30:34;7.15;;;6.38;;
41952;SDS011;47381;28.206;112.926;2022-07-09T07:33:22;6.95;;;6.30;;
41952;SDS011;47381;28.206;112.926;2022-07-09T07:35:49;8.05;;;6.32;;
41952;SDS011;47381;28.206;112.926;2022-07-09T07:38:19;7.53;;;5.95;;
41952;SDS011;47381;28.206;112.926;2022-07-09T07:40:48;7.72;;;7.03;;
41952;SDS011;47381;28.206;112.926;2022-07-09T07:43:15;6.80;;;6.10;;
41952;SDS011;47381;28.206;112.926;2022-07-09T07:45:42;7.53;;;6.88;;
41952;SDS011;47381;28.206;112.926;2022-07-09T07:48:10;6.82;;;6.18;;
41952;SDS011;47381;28.206;112.926;2022-07-09T07:50:37;6.97;;;6.20;;
41952;SDS011;47381;28.206;112.926;2022-07-09T07:53:05;6.82;;;6.22;;
41952;SDS011;47381;28.206;112.926;2022-07-09T07:55:32;7.30;;;6.22;;
41952;SDS011;47381;28.206;112.926;2022-07-09T07:58:15;6.68;;;6.07;;
41952;SDS011;47381;28.206;112.926;2022-07-09T08:01:15;7.25;;;6.43;;
41952;SDS011;47381;28.206;112.926;2022-07-09T08:03:42;10.77;;;6.85;;
41952;SDS011;47381;28.206;112.926;2022-07-09T08:06:09;7.93;;;6.20;;
41952;SDS011;47381;28.206;112.926;2022-07-09T08:08:38;6.80;;;6.10;;
41952;SDS011;47381;28.206;112.926;2022-07-09T08:11:08;6.85;;;6.18;;
41952;SDS011;47381;28.206;112.926;2022-07-09T08:13:36;6.82;;;6.05;;
41952;SDS011;47381;28.206;112.926;2022-07-09T08:16:05;6.80;;;6.10;;
41952;SDS011;47381;28.206;112.926;2022-07-09T08:18:36;6.80;;;6.20;;
41952;SDS011;47381;28.206;112.926;2022-07-09T08:21:04;6.82;;;6.20;;
41952;SDS011;47381;28.206;112.926;2022-07-09T08:23:31;6.45;;;5.85;;
41952;SDS011;47381;28.206;112.926;2022-07-09T08:26:18;7.15;;;6.45;;
41952;SDS011;47381;28.206;112.926;2022-07-09T08:28:47;8.43;;;7.53;;
41952;SDS011;47381;28.206;112.926;2022-07-09T08:31:19;7.68;;;6.88;;
41952;SDS011;47381;28.206;112.926;2022-07-09T08:33:47;7.40;;;6.72;;
41952;SDS011;47381;28.206;112.926;2022-07-09T08:36:16;8.40;;;6.82;;
41952;SDS011;47381;28.206;112.926;2022-07-09T08:38:43;6.75;;;6.03;;
41952;SDS011;47381;28.206;112.926;2022-07-09T08:41:15;8.00;;;6.40;;
41952;SDS011;47381;28.206;112.926;2022-07-09T08:43:51;7.80;;;6.35;;
41952;SDS011;47381;28.206;112.926;2022-07-09T08:46:19;7.88;;;6.75;;
41952;SDS011;47381;28.206;112.926;2022-07-09T08:48:46;8.13;;;6.40;;
41952;SDS011;47381;28.206;112.926;2022-07-09T08:51:17;7.97;;;5.80;;
41952;SDS011;47381;28.206;112.926;2022-07-09T08:53:47;6.13;;;5.53;;
41952;SDS011;47381;28.206;112.926;2022-07-09T08:56:15;6.22;;;5.63;;
41952;SDS011;47381;28.206;112.926;2022-07-09T08:58:42;6.45;;;5.38;;
41952;SDS011;47381;28.206;112.926;2022-07-09T09:01:12;6.20;;;5.57;;
41952;SDS011;47381;28.206;112.926;2022-07-09T09:03:41;7.03;;;5.55;;
41952;SDS011;47381;28.206;112.926;2022-07-09T09:06:09;7.68;;;5.53;;
41952;SDS011;47381;28.206;112.926;2022-07-09T09:08:39;8.50;;;6.32;;
41952;SDS011;47381;28.206;112.926;2022-07-09T09:11:20;6.82;;;5.75;;
41952;SDS011;47381;28.206;112.926;2022-07-09T09:13:50;6.32;;;5.20;;
41952;SDS011;47381;28.206;112.926;2022-07-09T09:16:19;5.82;;;5.28;;
41952;SDS011;47381;28.206;112.926;2022-07-09T09:18:51;6.47;;;5.70;;
41952;SDS011;47381;28.206;112.926;2022-07-09T09:21:23;6.40;;;5.25;;
41952;SDS011;47381;28.206;112.926;2022-07-09T09:23:52;7.72;;;5.68;;
41952;SDS011;47381;28.206;112.926;2022-07-09T09:26:40;7.05;;;5.85;;
41952;SDS011;47381;28.206;112.926;2022-07-09T09:29:09;7.57;;;6.30;;
41952;SDS011;47381;28.206;112.926;2022-07-09T09:31:36;6.70;;;6.00;;
41952;SDS011;47381;28.206;112.926;2022-07-09T09:36:38;7.93;;;6.40;;
41952;SDS011;47381;28.206;112.926;2022-07-09T09:39:28;8.65;;;6.53;;
41952;SDS011;47381;28.206;112.926;2022-07-09T09:41:59;8.40;;;6.72;;
41952;SDS011;47381;28.206;112.926;2022-07-09T09:44:32;10.70;;;6.53;;
41952;SDS011;47381;28.206;112.926;2022-07-09T09:47:06;7.10;;;6.15;;
41952;SDS011;47381;28.206;112.926;2022-07-09T09:49:34;7.93;;;6.57;;
41952;SDS011;47381;28.206;112.926;2022-07-09T09:52:07;7.22;;;6.53;;
41952;SDS011;47381;28.206;112.926;2022-07-09T09:54:38;9.35;;;6.53;;
41952;SDS011;47381;28.206;112.926;2022-07-09T09:57:12;9.05;;;7.32;;
41952;SDS011;47381;28.206;112.926;2022-07-09T10:00:00;10.07;;;7.25;;
41952;SDS011;47381;28.206;112.926;2022-07-09T10:02:28;7.70;;;6.78;;
41952;SDS011;47381;28.206;112.926;2022-07-09T10:04:56;15.02;;;10.18;;
41952;SDS011;47381;28.206;112.926;2022-07-09T10:07:24;12.20;;;8.00;;
41952;SDS011;47381;28.206;112.926;2022-07-09T10:09:54;12.93;;;8.93;;
41952;SDS011;47381;28.206;112.926;2022-07-09T10:12:26;13.02;;;8.88;;
41952;SDS011;47381;28.206;112.926;2022-07-09T10:14:56;16.17;;;11.95;;
41952;SDS011;47381;28.206;112.926;2022-07-09T10:17:24;12.30;;;9.40;;
41952;SDS011;47381;28.206;112.926;2022-07-09T10:20:04;10.82;;;9.40;;
41952;SDS011;47381;28.206;112.926;2022-07-09T10:25:06;12.20;;;9.00;;
41952;SDS011;47381;28.206;112.926;2022-07-09T10:27:43;10.13;;;8.10;;
41952;SDS011;47381;28.206;112.926;2022-07-09T10:30:32;11.77;;;9.20;;
41952;SDS011;47381;28.206;112.926;2022-07-09T10:33:06;10.70;;;8.23;;
41952;SDS011;47381;28.206;112.926;2022-07-09T10:35:57;13.30;;;9.40;;
41952;SDS011;47381;28.206;112.926;2022-07-09T10:38:36;11.07;;;9.07;;
41952;SDS011;47381;28.206;112.926;2022-07-09T10:41:22;12.68;;;8.02;;
41952;SDS011;47381;28.206;112.926;2022-07-09T10:43:50;10.07;;;8.48;;
41952;SDS011;47381;28.206;112.926;2022-07-09T10:46:18;12.55;;;8.52;;
41952;SDS011;47381;28.206;112.926;2022-07-09T10:48:46;11.32;;;8.15;;
41952;SDS011;47381;28.206;112.926;2022-07-09T10:51:20;14.30;;;9.35;;
41952;SDS011;47381;28.206;112.926;2022-07-09T10:53:48;12.20;;;8.82;;
41952;SDS011;47381;28.206;112.926;2022-07-09T10:59:24;13.45;;;9.00;;
41952;SDS011;47381;28.206;112.926;2022-07-09T11:02:22;12.38;;;9.27;;
41952;SDS011;47381;28.206;112.926;2022-07-09T11:04:50;9.68;;;8.77;;
41952;SDS011;47381;28.206;112.926;2022-07-09T11:07:24;11.68;;;8.68;;
41952;SDS011;47381;28.206;112.926;2022-07-09T11:09:55;10.25;;;8.10;;
41952;SDS011;47381;28.206;112.926;2022-07-09T11:14:55;10.10;;;8.35;;
41952;SDS011;47381;28.206;112.926;2022-07-09T11:17:23;11.35;;;8.90;;
41952;SDS011;47381;28.206;112.926;2022-07-09T11:19:52;11.18;;;8.57;;
41952;SDS011;47381;28.206;112.926;2022-07-09T11:22:37;10.65;;;8.75;;
41952;SDS011;47381;28.206;112.926;2022-07-09T11:25:06;10.10;;;8.70;;
41952;SDS011;47381;28.206;112.926;2022-07-09T11:27:38;11.38;;;8.10;;
41952;SDS011;47381;28.206;112.926;2022-07-09T11:30:07;12.95;;;8.90;;
41952;SDS011;47381;28.206;112.926;2022-07-09T11:32:43;11.55;;;9.50;;
41952;SDS011;47381;28.206;112.926;2022-07-09T11:35:23;15.15;;;10.38;;
41952;SDS011;47381;28.206;112.926;2022-07-09T11:37:51;9.70;;;8.70;;
41952;SDS011;47381;28.206;112.926;2022-07-09T11:40:19;10.50;;;9.45;;
41952;SDS011;47381;28.206;112.926;2022-07-09T11:42:47;14.50;;;9.23;;
41952;SDS011;47381;28.206;112.926;2022-07-09T11:45:21;9.98;;;8.82;;
41952;SDS011;47381;28.206;112.926;2022-07-09T11:47:50;12.30;;;9.27;;
41952;SDS011;47381;28.206;112.926;2022-07-09T11:50:28;13.05;;;10.02;;
41952;SDS011;47381;28.206;112.926;2022-07-09T11:52:56;10.43;;;8.77;;
41952;SDS011;47381;28.206;112.926;2022-07-09T11:55:30;11.50;;;8.90;;
41952;SDS011;47381;28.206;112.926;2022-07-09T11:58:02;10.82;;;9.60;;
41952;SDS011;47381;28.206;112.926;2022-07-09T12:00:34;11.98;;;8.57;;
41952;SDS011;47381;28.206;112.926;2022-07-09T12:03:06;12.57;;;9.07;;
41952;SDS011;47381;28.206;112.926;2022-07-09T12:05:34;10.77;;;9.30;;
41952;SDS011;47381;28.206;112.926;2022-07-09T12:08:07;10.25;;;9.23;;
41952;SDS011;47381;28.206;112.926;2022-07-09T12:10:38;13.63;;;9.95;;
41952;SDS011;47381;28.206;112.926;2022-07-09T12:13:17;10.82;;;9.38;;
41952;SDS011;47381;28.206;112.926;2022-07-09T12:15:44;12.35;;;9.77;;
41952;SDS011;47381;28.206;112.926;2022-07-09T12:18:11;12.18;;;9.35;;
41952;SDS011;47381;28.206;112.926;2022-07-09T12:20:40;11.82;;;9.75;;
41952;SDS011;47381;28.206;112.926;2022-07-09T12:23:07;14.13;;;10.20;;
41952;SDS011;47381;28.206;112.926;2022-07-09T12:25:37;13.68;;;9.73;;
41952;SDS011;47381;28.206;112.926;2022-07-09T12:28:07;14.27;;;10.25;;
41952;SDS011;47381;28.206;112.926;2022-07-09T12:30:34;14.70;;;9.77;;
41952;SDS011;47381;28.206;112.926;2022-07-09T12:33:01;14.30;;;10.10;;
41952;SDS011;47381;28.206;112.926;2022-07-09T12:35:29;14.40;;;9.77;;
41952;SDS011;47381;28.206;112.926;2022-07-09T12:37:56;13.25;;;10.00;;
41952;SDS011;47381;28.206;112.926;2022-07-09T12:40:23;10.30;;;9.18;;
41952;SDS011;47381;28.206;112.926;2022-07-09T12:42:50;12.23;;;9.75;;
41952;SDS011;47381;28.206;112.926;2022-07-09T12:45:17;12.65;;;10.27;;
41952;SDS011;47381;28.206;112.926;2022-07-09T12:47:44;13.10;;;10.27;;
41952;SDS011;47381;28.206;112.926;2022-07-09T12:50:12;11.35;;;8.73;;
41952;SDS011;47381;28.206;112.926;2022-07-09T12:52:42;12.27;;;9.70;;
41952;SDS011;47381;28.206;112.926;2022-07-09T12:55:22;12.20;;;9.23;;
41952;SDS011;47381;28.206;112.926;2022-07-09T12:57:49;14.10;;;10.25;;
41952;SDS011;47381;28.206;112.926;2022-07-09T13:00:17;11.75;;;9.77;;
41952;SDS011;47381;28.206;112.926;2022-07-09T13:02:47;10.57;;;9.27;;
41952;SDS011;47381;28.206;112.926;2022-07-09T13:05:14;11.23;;;8.95;;
41952;SDS011;47381;28.206;112.926;2022-07-09T13:07:42;12.10;;;9.52;;
41952;SDS011;47381;28.206;112.926;2022-07-09T13:10:30;11.80;;;9.70;;
41952;SDS011;47381;28.206;112.926;2022-07-09T13:12:57;13.57;;;10.00;;
41952;SDS011;47381;28.206;112.926;2022-07-09T13:15:24;13.57;;;10.02;;
41952;SDS011;47381;28.206;112.926;2022-07-09T13:17:52;12.05;;;10.13;;
41952;SDS011;47381;28.206;112.926;2022-07-09T13:20:20;14.65;;;9.93;;
41952;SDS011;47381;28.206;112.926;2022-07-09T13:22:47;13.07;;;9.73;;
41952;SDS011;47381;28.206;112.926;2022-07-09T13:25:18;11.48;;;9.00;;
41952;SDS011;47381;28.206;112.926;2022-07-09T13:27:48;16.13;;;10.63;;
41952;SDS011;47381;28.206;112.926;2022-07-09T13:30:15;11.60;;;9.48;;
41952;SDS011;47381;28.206;112.926;2022-07-09T13:32:49;11.38;;;9.80;;
41952;SDS011;47381;28.206;112.926;2022-07-09T13:35:17;12.30;;;8.98;;
41952;SDS011;47381;28.206;112.926;2022-07-09T13:37:44;11.82;;;10.45;;
41952;SDS011;47381;28.206;112.926;2022-07-09T13:40:13;13.38;;;9.98;;
41952;SDS011;47381;28.206;112.926;2022-07-09T13:42:41;10.77;;;9.00;;
41952;SDS011;47381;28.206;112.926;2022-07-09T13:45:09;10.15;;;9.05;;
41952;SDS011;47381;28.206;112.926;2022-07-09T13:47:39;12.50;;;8.93;;
41952;SDS011;47381;28.206;112.926;2022-07-09T13:50:06;12.30;;;9.30;;
41952;SDS011;47381;28.206;112.926;2022-07-09T13:52:34;12.40;;;9.20;;
41952;SDS011;47381;28.206;112.926;2022-07-09T13:55:21;10.65;;;8.30;;
41952;SDS011;47381;28.206;112.926;2022-07-09T13:57:51;11.75;;;9.07;;
41952;SDS011;47381;28.206;112.926;2022-07-09T14:00:19;16.60;;;10.10;;
41952;SDS011;47381;28.206;112.926;2022-07-09T14:02:50;10.77;;;8.55;;
41952;SDS011;47381;28.206;112.926;2022-07-09T14:05:17;11.60;;;9.40;;
41952;SDS011;47381;28.206;112.926;2022-07-09T14:07:45;12.40;;;9.50;;
41952;SDS011;47381;28.206;112.926;2022-07-09T14:10:13;13.70;;;9.55;;
41952;SDS011;47381;28.206;112.926;2022-07-09T14:12:43;11.90;;;9.02;;
41952;SDS011;47381;28.206;112.926;2022-07-09T14:15:11;11.02;;;9.57;;
41952;SDS011;47381;28.206;112.926;2022-07-09T14:17:40;10.43;;;9.20;;
41952;SDS011;47381;28.206;112.926;2022-07-09T14:20:09;10.10;;;9.07;;
41952;SDS011;47381;28.206;112.926;2022-07-09T14:23:20;10.70;;;9.10;;
41952;SDS011;47381;28.206;112.926;2022-07-09T14:25:48;14.05;;;9.50;;
41952;SDS011;47381;28.206;112.926;2022-07-09T14:28:16;13.00;;;9.85;;
41952;SDS011;47381;28.206;112.926;2022-07-09T14:30:48;9.77;;;8.73;;
41952;SDS011;47381;28.206;112.926;2022-07-09T14:33:15;11.02;;;9.35;;
41952;SDS011;47381;28.206;112.926;2022-07-09T14:35:51;10.05;;;8.48;;
41952;SDS011;47381;28.206;112.926;2022-07-09T14:38:23;10.32;;;8.98;;
41952;SDS011;47381;28.206;112.926;2022-07-09T14:40:53;10.38;;;8.77;;
41952;SDS011;47381;28.206;112.926;2022-07-09T14:43:20;12.23;;;8.75;;
41952;SDS011;47381;28.206;112.926;2022-07-09T14:45:49;12.13;;;9.25;;
41952;SDS011;47381;28.206;112.926;2022-07-09T14:48:16;10.50;;;8.60;;